Time;durP1;ratioP1;P1;durP2;ratioP2;P2;SDS_P1;SDS_P2;PMS_P1;PMS_P2;Temp;Humidity;BMP_temperature;BMP_pressure;BME280_temperature;BME280_humidity;BME280_pressure;Samples;Min_cycle;Max_cycle;Signal;HPM_P1;HPM_P2
2022/10/30 00:00:57;;;;;;;17.73;12.40;;;;;;;15.07;77.23;100150.53;1631033;88;21362;-77
2022/10/30 00:04:04;;;;;;;15.83;11.25;;;;;;;14.94;78.03;100132.59;1629994;88;21569;-77
2022/10/30 00:07:10;;;;;;;17.07;12.53;;;;;;;14.98;77.55;100133.03;1611499;89;21231;-78
2022/10/30 00:10:17;;;;;;;17.10;11.90;;;;;;;14.97;77.95;100138.23;1610694;87;21572;-78
2022/10/30 00:13:25;;;;;;;19.80;13.05;;;;;;;14.97;78.18;100133.57;1610925;88;21251;-78
2022/10/30 00:16:32;;;;;;;14.30;11.33;;;;;;;15.09;77.59;100118.09;1611977;89;21232;-77
2022/10/30 00:19:37;;;;;;;17.00;12.60;;;;;;;15.35;76.82;100106.78;1611440;89;21216;-77
2022/10/30 00:22:42;;;;;;;16.37;11.63;;;;;;;15.40;76.29;100098.73;1610204;89;21291;-77
2022/10/30 00:25:50;;;;;;;15.08;10.58;;;;;;;15.08;77.65;100095.75;1610274;89;21247;-77
2022/10/30 00:29:00;;;;;;;14.50;11.20;;;;;;;14.95;78.59;100082.49;1610746;88;21275;-77
2022/10/30 00:32:01;;;;;;;18.02;11.33;;;;;;;14.86;78.92;100068.61;1610487;89;21862;-77
2022/10/30 00:34:53;;;;;;;14.58;9.63;;;;;;;14.87;79.16;100082.69;1611534;89;21235;-77
2022/10/30 00:37:58;;;;;;;17.25;10.70;;;;;;;15.18;77.86;100073.82;1632032;88;21260;-77
2022/10/30 00:41:05;;;;;;;16.40;11.08;;;;;;;15.09;78.22;100074.02;1630784;88;21309;-77
2022/10/30 00:44:33;;;;;;;13.75;10.53;;;;;;;14.90;79.10;100077.61;1631704;87;21300;-77
2022/10/30 00:47:37;;;;;;;14.93;11.35;;;;;;;14.79;79.75;100063.95;1632124;88;21775;-77
2022/10/30 00:50:43;;;;;;;13.90;10.72;;;;;;;14.72;80.25;100074.09;1631921;88;21232;-77
2022/10/30 00:53:51;;;;;;;16.45;11.05;;;;;;;14.65;80.68;100071.02;1630756;88;21272;-77
2022/10/30 00:56:59;;;;;;;16.05;10.90;;;;;;;14.80;80.16;100079.94;1631955;88;21256;-77
2022/10/30 01:00:04;;;;;;;15.90;10.82;;;;;;;15.02;79.52;100067.68;1640071;84;21248;-77
2022/10/30 01:03:10;;;;;;;17.57;10.90;;;;;;;15.05;79.46;100064.48;1653089;87;21375;-77
2022/10/30 01:06:18;;;;;;;15.03;10.80;;;;;;;14.96;80.01;100058.89;1665808;85;21265;-77
2022/10/30 01:09:27;;;;;;;14.83;9.88;;;;;;;14.73;80.76;100058.45;1653702;85;21236;-77
2022/10/30 01:12:33;;;;;;;19.27;10.90;;;;;;;14.63;81.57;100050.56;1665997;86;22519;-77
2022/10/30 01:15:49;;;;;;;13.70;10.00;;;;;;;14.48;82.20;100049.91;1667033;86;21584;-77
2022/10/30 01:19:03;;;;;;;20.62;10.95;;;;;;;14.65;81.87;100049.00;1652966;87;21263;-78
2022/10/30 01:22:21;;;;;;;14.68;11.15;;;;;;;14.64;81.86;100052.82;1666262;86;21256;-77
2022/10/30 01:25:42;;;;;;;16.35;10.25;;;;;;;14.60;82.15;100043.28;1666957;86;21217;-77
2022/10/30 01:29:04;;;;;;;16.80;11.05;;;;;;;14.34;82.97;100042.11;1666738;86;21280;-77
2022/10/30 01:32:46;;;;;;;17.80;10.88;;;;;;;14.60;82.46;100033.64;1640543;86;21225;-77
2022/10/30 01:36:20;;;;;;;19.05;10.85;;;;;;;14.65;82.19;100026.98;1666936;86;21752;-77
2022/10/30 01:39:30;;;;;;;17.27;10.50;;;;;;;14.73;82.44;100019.91;1666957;86;21819;-77
2022/10/30 01:43:03;;;;;;;15.65;10.48;;;;;;;14.57;82.95;100010.97;1666112;86;21284;-77
2022/10/30 01:46:29;;;;;;;13.85;10.80;;;;;;;14.75;82.52;100004.85;1653421;87;21218;-77
2022/10/30 01:49:48;;;;;;;16.65;10.03;;;;;;;14.87;82.29;99994.08;1666951;86;21261;-77
2022/10/30 01:53:08;;;;;;;14.18;9.95;;;;;;;14.79;82.33;99980.52;1665801;86;21208;-77
2022/10/30 01:56:51;;;;;;;16.73;10.08;;;;;;;14.93;82.18;99984.95;1652239;87;21216;-77
2022/10/30 02:00:13;;;;;;;13.40;9.48;;;;;;;14.49;84.36;99974.55;1666245;85;21252;-77
2022/10/30 02:03:21;;;;;;;17.57;10.38;;;;;;;14.62;84.06;99969.06;1665876;86;21541;-77
2022/10/30 02:06:26;;;;;;;18.48;10.35;;;;;;;14.74;83.61;99961.03;1666989;86;22521;-77
2022/10/30 02:09:33;;;;;;;19.98;10.58;;;;;;;14.84;83.21;99964.20;1666772;85;21236;-77
2022/10/30 02:12:32;;;;;;;19.32;11.00;;;;;;;14.66;83.55;99965.36;1652845;87;21271;-77
2022/10/30 02:15:39;;;;;;;17.12;10.75;;;;;;;14.70;84.09;99977.65;1666785;85;21237;-77
2022/10/30 02:18:44;;;;;;;19.30;10.38;;;;;;;15.05;82.82;99969.45;1668171;86;21173;-77
2022/10/30 02:21:50;;;;;;;16.40;10.00;;;;;;;14.96;83.22;99964.38;1668170;86;21260;-77
2022/10/30 02:24:56;;;;;;;20.00;9.95;;;;;;;14.99;83.25;99974.45;1667384;86;21191;-77
2022/10/30 02:28:02;;;;;;;15.15;10.23;;;;;;;15.06;82.92;99965.67;1665943;86;21911;-77
2022/10/30 02:31:07;;;;;;;16.20;9.80;;;;;;;15.10;82.89;99961.93;1666862;86;21267;-78
2022/10/30 02:34:14;;;;;;;22.87;11.03;;;;;;;14.96;83.37;99965.27;1667141;86;21197;-78
2022/10/30 02:37:21;;;;;;;17.85;10.48;;;;;;;14.63;84.88;99963.02;1652009;87;21878;-78
2022/10/30 02:40:27;;;;;;;16.17;10.25;;;;;;;14.69;85.02;99958.06;1665992;86;21913;-77
2022/10/30 02:43:33;;;;;;;26.30;11.35;;;;;;;14.90;84.27;99966.09;1666244;86;21245;-77
2022/10/30 02:46:33;;;;;;;22.13;11.83;;;;;;;14.85;83.95;99947.98;1665874;86;21204;-77
2022/10/30 02:49:26;;;;;;;16.73;10.88;;;;;;;14.73;84.31;99942.30;1653894;87;21208;-77
2022/10/30 02:52:32;;;;;;;16.87;10.35;;;;;;;14.94;84.15;99940.36;1665924;86;21199;-77
2022/10/30 02:55:38;;;;;;;15.10;9.85;;;;;;;14.99;83.75;99934.52;1667162;86;21272;-77
2022/10/30 02:58:44;;;;;;;22.75;11.43;;;;;;;15.15;83.32;99933.74;1667133;86;21208;-77
2022/10/30 03:01:53;;;;;;;14.85;10.38;;;;;;;14.93;83.97;99936.77;1666584;85;21549;-77
2022/10/30 03:05:00;;;;;;;26.37;12.07;;;;;;;14.89;84.16;99938.24;1660428;86;21842;-77
2022/10/30 03:08:07;;;;;;;17.35;10.23;;;;;;;14.87;84.13;99934.88;1672237;86;21216;-77
2022/10/30 03:11:19;;;;;;;23.52;11.55;;;;;;;15.08;83.42;99944.25;1660479;86;21211;-77
2022/10/30 03:14:25;;;;;;;20.43;10.45;;;;;;;15.21;82.90;99935.66;1673243;86;21733;-77
2022/10/30 03:17:32;;;;;;;19.48;11.08;;;;;;;15.21;82.66;99935.66;1661418;86;21250;-77
2022/10/30 03:20:39;;;;;;;23.38;11.30;;;;;;;15.30;82.27;99944.01;1672318;86;21213;-77
2022/10/30 03:23:46;;;;;;;19.25;10.72;;;;;;;15.26;82.36;99929.81;1660377;86;21252;-77
2022/10/30 03:26:46;;;;;;;13.45;9.95;;;;;;;15.28;82.40;99936.47;1672219;86;21260;-77
2022/10/30 03:29:53;;;;;;;17.32;9.75;;;;;;;15.21;82.61;99922.73;1660358;86;22463;-77
2022/10/30 03:33:00;;;;;;;15.72;9.70;;;;;;;15.21;82.69;99923.26;1671970;86;22475;-77
2022/10/30 03:36:05;;;;;;;17.12;10.55;;;;;;;15.34;82.30;99921.85;1660209;86;21255;-77
2022/10/30 03:39:12;;;;;;;19.37;11.53;;;;;;;15.30;82.31;99915.08;1672068;86;21209;-77
2022/10/30 03:42:17;;;;;;;21.62;10.68;;;;;;;15.27;82.21;99911.37;1658993;86;21238;-78
2022/10/30 03:45:17;;;;;;;19.42;10.50;;;;;;;15.34;81.93;99913.05;1672143;86;21256;-77
2022/10/30 03:48:22;;;;;;;17.12;10.18;;;;;;;15.26;82.08;99915.19;1660246;86;21869;-77
2022/10/30 03:51:29;;;;;;;19.62;11.18;;;;;;;15.37;81.80;99913.66;1672099;86;21193;-77
2022/10/30 03:54:34;;;;;;;20.88;11.35;;;;;;;15.39;81.48;99909.64;1659475;86;21223;-77
2022/10/30 03:57:45;;;;;;;18.40;10.72;;;;;;;15.45;81.25;99908.77;1672076;86;21217;-76
2022/10/30 04:00:52;;;;;;;17.27;11.22;;;;;;;15.54;80.98;99908.83;1660454;85;21216;-77
2022/10/30 04:04:01;;;;;;;20.45;10.68;;;;;;;15.58;80.60;99909.25;1668484;86;21237;-77
2022/10/30 04:07:07;;;;;;;26.17;10.28;;;;;;;15.56;80.64;99911.36;1667104;86;21898;-77
2022/10/30 04:10:13;;;;;;;16.27;9.85;;;;;;;15.63;80.35;99912.73;1665863;85;21313;-76
2022/10/30 04:13:23;;;;;;;14.15;9.00;;;;;;;15.59;80.38;99906.80;1665807;86;21565;-77
2022/10/30 04:16:30;;;;;;;22.02;12.03;;;;;;;15.57;80.24;99902.89;1667936;85;21205;-77
2022/10/30 04:19:36;;;;;;;18.07;10.88;;;;;;;15.44;80.75;99911.75;1668084;86;21764;-77
2022/10/30 04:22:42;;;;;;;23.87;11.50;;;;;;;15.41;80.91;99906.12;1667201;86;21776;-77
2022/10/30 04:25:49;;;;;;;19.20;10.30;;;;;;;15.45;80.66;99907.38;1653017;87;21786;-77
2022/10/30 04:28:55;;;;;;;20.57;12.40;;;;;;;15.52;80.31;99915.08;1667602;86;21248;-76
2022/10/30 04:32:02;;;;;;;23.77;11.25;;;;;;;15.60;80.24;99923.11;1667049;86;21236;-77
2022/10/30 04:35:08;;;;;;;20.50;10.35;;;;;;;15.45;80.68;99925.30;1666260;86;21216;-76
2022/10/30 04:38:22;;;;;;;21.93;10.93;;;;;;;15.60;80.25;99916.75;1653084;87;21220;-77
2022/10/30 04:41:24;;;;;;;23.12;11.70;;;;;;;15.45;80.53;99914.27;1667003;86;21307;-77
2022/10/30 04:44:32;;;;;;;19.92;10.28;;;;;;;15.54;80.29;99912.97;1652646;87;21248;-77
2022/10/30 04:47:37;;;;;;;13.75;9.70;;;;;;;15.49;80.41;99910.02;1666366;86;21280;-77
2022/10/30 04:50:43;;;;;;;21.57;12.88;;;;;;;15.55;80.04;99905.00;1666963;86;21192;-77
2022/10/30 04:53:49;;;;;;;17.80;11.45;;;;;;;15.42;80.77;99912.48;1653071;87;21220;-77
2022/10/30 04:56:56;;;;;;;18.02;10.95;;;;;;;15.56;80.22;99916.34;1667008;86;21513;-77
2022/10/30 05:00:04;;;;;;;22.87;11.28;;;;;;;15.40;80.59;99909.11;1653095;87;21231;-77
2022/10/30 05:03:11;;;;;;;16.80;9.83;;;;;;;15.44;80.28;99917.26;1666264;86;21225;-77
2022/10/30 05:06:33;;;;;;;24.52;11.93;;;;;;;15.54;80.01;99925.91;1665354;86;21799;-77
2022/10/30 05:09:40;;;;;;;17.45;9.93;;;;;;;15.56;79.72;99918.25;1665814;84;21252;-77
2022/10/30 05:12:46;;;;;;;16.20;11.65;;;;;;;15.65;79.10;99917.51;1667066;86;21197;-77
2022/10/30 05:15:52;;;;;;;22.15;11.53;;;;;;;15.64;79.14;99924.09;1649379;86;21252;-77
2022/10/30 05:18:59;;;;;;;17.07;11.38;;;;;;;15.52;79.74;99919.75;1667502;86;21276;-77
2022/10/30 05:22:09;;;;;;;18.37;12.58;;;;;;;15.34;80.23;99917.72;1652045;86;21774;-76
2022/10/30 05:25:14;;;;;;;21.10;12.15;;;;;;;15.09;81.37;99921.69;1666491;86;21843;-77
2022/10/30 05:28:20;;;;;;;17.90;12.05;;;;;;;15.17;81.56;99916.48;1667710;86;21201;-77
2022/10/30 05:31:28;;;;;;;16.85;10.53;;;;;;;15.27;81.09;99913.59;1666989;86;21205;-77
2022/10/30 05:34:40;;;;;;;18.67;12.30;;;;;;;15.32;81.04;99920.67;1653000;87;21268;-77
2022/10/30 05:37:46;;;;;;;19.60;11.95;;;;;;;15.33;80.75;99922.35;1666951;86;21868;-77
2022/10/30 05:40:53;;;;;;;26.85;12.05;;;;;;;15.38;80.63;99920.33;1651668;85;21271;-77
2022/10/30 05:44:00;;;;;;;28.12;12.60;;;;;;;15.56;80.20;99918.25;1666938;86;21193;-78
2022/10/30 05:47:07;;;;;;;17.82;11.30;;;;;;;15.66;79.71;99923.33;1653081;87;21204;-77
2022/10/30 05:50:16;;;;;;;22.20;12.13;;;;;;;15.67;79.31;99900.23;1666991;86;22469;-77
2022/10/30 05:53:38;;;;;;;22.35;12.50;;;;;;;15.67;79.26;99894.72;1566973;91;21790;-77
2022/10/30 05:56:47;;;;;;;21.82;12.33;;;;;;;15.83;78.66;99902.47;1636775;87;21237;-77
2022/10/30 05:59:52;;;;;;;20.80;11.80;;;;;;;15.69;79.13;99918.77;1651836;87;21751;-77
2022/10/30 06:03:06;;;;;;;19.70;11.25;;;;;;;15.86;78.68;99925.48;1665664;86;22073;-77
2022/10/30 06:06:11;;;;;;;26.60;13.48;;;;;;;16.03;78.08;99923.88;1655946;86;21232;-77
2022/10/30 06:09:17;;;;;;;18.35;12.05;;;;;;;16.16;77.33;99924.87;1659880;85;21838;-77
2022/10/30 06:12:28;;;;;;;18.23;12.80;;;;;;;16.06;77.31;99912.41;1668745;86;21257;-77
2022/10/30 06:15:46;;;;;;;17.15;11.43;;;;;;;15.81;78.46;99899.95;1671741;86;21197;-77
2022/10/30 06:18:56;;;;;;;24.75;13.32;;;;;;;15.63;79.18;99876.89;1657432;85;21235;-77
2022/10/30 06:22:02;;;;;;;29.90;12.80;;;;;;;15.55;79.50;99882.95;1670783;86;22407;-77
2022/10/30 06:25:10;;;;;;;21.97;12.65;;;;;;;15.78;78.91;99914.70;1661178;86;21192;-77
2022/10/30 06:28:19;;;;;;;23.12;12.28;;;;;;;15.47;79.72;99928.67;1672601;86;21755;-76
2022/10/30 06:31:24;;;;;;;25.95;12.05;;;;;;;15.62;79.23;99945.47;1660278;86;21326;-77
2022/10/30 06:34:30;;;;;;;20.05;12.43;;;;;;;15.79;78.61;99942.58;1671401;85;21228;-77
2022/10/30 06:37:40;;;;;;;21.97;13.22;;;;;;;15.91;78.06;99921.53;1660489;86;21786;-77
2022/10/30 06:40:49;;;;;;;23.45;12.53;;;;;;;15.97;77.95;99936.34;1672053;86;21224;-77
2022/10/30 06:44:11;;;;;;;23.50;14.65;;;;;;;16.05;77.59;99939.70;1656763;86;21220;-77
2022/10/30 06:47:17;;;;;;;19.90;12.85;;;;;;;15.95;77.72;99942.09;1670927;86;21249;-77
2022/10/30 06:50:26;;;;;;;19.20;12.45;;;;;;;16.02;77.53;99931.85;1658989;86;21877;-77
2022/10/30 06:53:31;;;;;;;18.85;12.68;;;;;;;16.10;77.16;99928.00;1672274;86;21260;-77
2022/10/30 06:56:49;;;;;;;24.85;13.78;;;;;;;16.07;77.22;99925.13;1657481;86;21220;-77
2022/10/30 07:00:05;;;;;;;21.37;12.00;;;;;;;16.19;76.85;99909.27;1668795;86;21228;-76
2022/10/30 07:03:22;;;;;;;31.77;13.43;;;;;;;16.31;76.29;99878.48;1566030;86;21395;-77
2022/10/30 07:06:29;;;;;;;21.62;12.03;;;;;;;16.23;76.22;99929.30;1670097;85;21304;-77
2022/10/30 07:09:33;;;;;;;23.07;13.25;;;;;;;16.22;76.47;99926.73;1659026;85;21298;-77
2022/10/30 07:12:42;;;;;;;27.27;13.18;;;;;;;16.18;76.56;99903.41;1672123;86;21760;-77
2022/10/30 07:16:04;;;;;;;20.60;12.13;;;;;;;16.11;77.04;99885.54;1599982;86;21817;-77
2022/10/30 07:19:11;;;;;;;18.73;12.88;;;;;;;16.14;76.91;99888.37;1660274;86;21216;-77
2022/10/30 07:22:18;;;;;;;26.57;13.30;;;;;;;16.10;77.01;99922.48;1672179;86;21216;-76
2022/10/30 07:25:26;;;;;;;28.65;15.05;;;;;;;16.16;76.89;99922.12;1660355;86;21200;-77
2022/10/30 07:28:37;;;;;;;26.48;13.68;;;;;;;16.05;77.05;99919.00;1667290;86;21361;-77
2022/10/30 07:31:46;;;;;;;20.10;12.58;;;;;;;16.10;77.15;99926.08;1659021;86;21227;-77
2022/10/30 07:34:55;;;;;;;23.55;13.00;;;;;;;16.07;77.41;99914.64;1658976;85;21243;-77
2022/10/30 07:38:19;;;;;;;25.95;13.72;;;;;;;16.01;78.00;99897.59;1670783;86;21213;-76
2022/10/30 07:41:28;;;;;;;21.93;13.55;;;;;;;16.22;77.34;99894.47;1670365;86;21264;-77
2022/10/30 07:44:38;;;;;;;24.23;14.50;;;;;;;16.39;76.84;99885.13;1606412;86;21219;-77
2022/10/30 07:47:58;;;;;;;22.62;12.90;;;;;;;16.42;76.75;99886.56;1661210;86;21220;-76
2022/10/30 07:51:06;;;;;;;25.90;13.22;;;;;;;16.36;77.15;99888.31;1672234;86;21799;-77
2022/10/30 07:54:13;;;;;;;24.63;13.15;;;;;;;16.34;77.30;99901.51;1660249;86;21203;-77
2022/10/30 07:57:20;;;;;;;22.67;13.95;;;;;;;16.36;77.33;99890.54;1647742;86;21212;-77
2022/10/30 08:00:43;;;;;;;28.00;14.53;;;;;;;16.35;77.66;99898.52;1660173;86;21516;-77
2022/10/30 08:03:52;;;;;;;22.80;13.00;;;;;;;16.55;77.22;99906.62;1671952;86;21208;-77
2022/10/30 08:07:00;;;;;;;22.98;14.07;;;;;;;16.55;77.26;99908.55;1659805;86;21246;-77
2022/10/30 08:10:08;;;;;;;27.77;13.95;;;;;;;16.45;77.40;99909.05;1677171;84;21232;-77
2022/10/30 08:13:14;;;;;;;27.82;13.53;;;;;;;16.49;77.26;99903.40;1662401;86;21223;-77
2022/10/30 08:16:20;;;;;;;18.92;12.85;;;;;;;16.67;76.70;99915.58;1674896;85;21256;-77
2022/10/30 08:19:26;;;;;;;21.82;11.85;;;;;;;16.75;76.48;99913.92;1662134;86;22525;-77
2022/10/30 08:22:33;;;;;;;17.92;12.05;;;;;;;16.90;75.75;99921.35;1676286;85;21252;-77
2022/10/30 08:25:43;;;;;;;25.92;12.33;;;;;;;16.84;75.96;99909.30;1662117;86;21200;-77
2022/10/30 08:28:49;;;;;;;22.82;14.03;;;;;;;16.95;75.53;99909.08;1675074;85;21216;-77
2022/10/30 08:31:57;;;;;;;29.05;14.83;;;;;;;16.88;76.16;99912.42;1676193;85;21260;-77
2022/10/30 08:35:11;;;;;;;19.25;12.53;;;;;;;16.92;75.82;99918.34;1650004;85;21224;-77
2022/10/30 08:38:18;;;;;;;27.17;13.50;;;;;;;16.95;76.17;99930.34;1675554;85;21339;-78
2022/10/30 08:41:34;;;;;;;20.05;13.53;;;;;;;16.84;75.85;99928.63;1662181;86;21267;-77
2022/10/30 08:44:43;;;;;;;20.23;12.10;;;;;;;16.76;76.66;99926.15;1675159;85;21775;-77
2022/10/30 08:48:07;;;;;;;20.12;13.10;;;;;;;16.79;76.58;99923.45;1674923;85;21244;-77
2022/10/30 08:51:13;;;;;;;23.75;14.53;;;;;;;16.61;77.02;99913.19;1677312;85;21188;-77
2022/10/30 08:54:19;;;;;;;25.17;13.60;;;;;;;16.61;76.55;99915.41;1676784;85;21240;-77
2022/10/30 08:57:24;;;;;;;27.05;14.83;;;;;;;16.55;76.74;99909.39;1662056;86;21810;-77
2022/10/30 09:00:31;;;;;;;33.30;15.00;;;;;;;16.56;76.66;99913.87;1676119;85;21216;-77
2022/10/30 09:03:37;;;;;;;22.05;13.68;;;;;;;16.60;76.29;99916.46;1662230;86;21889;-77
2022/10/30 09:06:56;;;;;;;26.93;14.38;;;;;;;16.56;76.46;99912.99;1675756;85;21276;-77
2022/10/30 09:10:03;;;;;;;32.33;14.95;;;;;;;16.49;76.75;99914.98;1643298;85;21208;-77
2022/10/30 09:13:10;;;;;;;32.63;14.55;;;;;;;16.49;76.70;99906.16;1675385;85;21216;-77
2022/10/30 09:16:17;;;;;;;24.02;14.33;;;;;;;16.45;76.94;99913.20;1675323;85;21208;-77
2022/10/30 09:19:23;;;;;;;21.70;14.00;;;;;;;16.38;77.26;99912.42;1675607;85;21771;-77
2022/10/30 09:22:29;;;;;;;22.87;13.20;;;;;;;16.33;77.43;99915.84;1675846;85;21842;-77
2022/10/30 09:25:34;;;;;;;28.60;14.73;;;;;;;16.46;76.95;99912.66;1635076;88;21803;-77
2022/10/30 09:28:46;;;;;;;25.43;15.93;;;;;;;16.45;77.19;99906.30;1674502;85;21362;-77
2022/10/30 09:32:09;;;;;;;32.20;16.67;;;;;;;16.38;77.43;99904.67;1676715;85;21251;-77
2022/10/30 09:35:32;;;;;;;27.07;14.53;;;;;;;16.31;77.92;99901.95;1635745;88;21247;-77
2022/10/30 09:38:39;;;;;;;27.52;14.50;;;;;;;16.29;78.29;99900.80;1675400;85;21366;-77
2022/10/30 09:41:52;;;;;;;24.43;15.23;;;;;;;16.57;77.64;99898.98;1634977;88;21224;-77
2022/10/30 09:45:18;;;;;;;26.77;15.28;;;;;;;16.64;77.21;99903.59;1676723;85;21728;-77
2022/10/30 09:48:48;;;;;;;27.48;15.38;;;;;;;16.46;77.70;99894.71;1676471;85;21247;-77
2022/10/30 09:52:14;;;;;;;;;;;;;;;16.52;77.36;99899.36;1637608;87;21247;-77
2022/10/30 09:55:36;;;;;;;29.67;15.55;;;;;;;16.63;76.92;99899.15;1676748;85;20230;-77
2022/10/30 09:59:16;;;;;;;22.67;14.03;;;;;;;16.83;76.13;99896.53;1676326;85;21192;-77
2022/10/30 10:02:41;;;;;;;25.00;15.60;;;;;;;16.56;77.10;99896.43;1635218;88;21706;-77
2022/10/30 10:06:05;;;;;;;25.08;13.05;;;;;;;16.78;76.50;99897.75;1676637;85;21518;-77
2022/10/30 10:09:26;;;;;;;29.05;15.32;;;;;;;16.69;76.85;99892.72;1634395;86;21236;-77
2022/10/30 10:12:49;;;;;;;28.52;13.25;;;;;;;16.91;76.53;99895.41;1696288;84;21208;-77
2022/10/30 10:15:59;;;;;;;25.35;14.13;;;;;;;17.03;75.82;99902.39;1696191;84;22048;-77
2022/10/30 10:19:21;;;;;;;37.25;15.15;;;;;;;17.06;75.93;99892.28;1696864;84;21219;-77
2022/10/30 10:22:53;;;;;;;22.37;13.08;;;;;;;17.17;75.47;99887.91;1660117;86;21918;-77
2022/10/30 10:26:02;;;;;;;21.95;12.50;;;;;;;16.59;77.41;99900.97;1670763;85;21212;-77
2022/10/30 10:29:22;;;;;;;20.82;13.05;;;;;;;16.73;77.35;99892.61;1660970;86;21377;-77
2022/10/30 10:32:40;;;;;;;26.73;14.10;;;;;;;17.01;76.03;99883.30;1673006;86;21209;-77
2022/10/30 10:36:04;;;;;;;22.98;13.53;;;;;;;17.14;74.97;99882.86;1660251;86;21236;-78
2022/10/30 10:39:51;;;;;;;28.02;13.43;;;;;;;17.16;74.98;99875.16;1671048;86;21216;-77
2022/10/30 10:43:14;;;;;;;18.60;11.25;;;;;;;17.22;74.80;99873.73;1660309;86;21260;-77
2022/10/30 10:46:42;;;;;;;24.25;11.90;;;;;;;17.33;73.92;99864.66;1672109;86;21248;-77
2022/10/30 10:50:27;;;;;;;29.32;12.98;;;;;;;17.04;74.26;99862.66;1659587;86;21248;-77
2022/10/30 10:53:41;;;;;;;16.50;11.10;;;;;;;16.90;74.21;99852.29;1671512;86;21283;-77
2022/10/30 10:56:43;;;;;;;17.37;11.10;;;;;;;16.74;74.19;99849.56;1660295;86;21268;-77
2022/10/30 10:59:56;;;;;;;20.02;11.50;;;;;;;16.60;74.24;99845.21;1671908;85;21236;-77
2022/10/30 11:03:23;;;;;;;20.92;11.10;;;;;;;16.53;74.10;99852.19;1660318;86;21209;-77
2022/10/30 11:06:41;;;;;;;19.82;11.05;;;;;;;16.53;74.07;99843.91;1672145;86;21252;-76
2022/10/30 11:09:47;;;;;;;25.15;11.03;;;;;;;16.53;73.89;99849.43;1659155;85;21337;-77
2022/10/30 11:12:53;;;;;;;21.85;11.00;;;;;;;16.47;74.01;99850.34;1666037;84;22598;-77
2022/10/30 11:16:23;;;;;;;18.98;10.43;;;;;;;16.51;73.69;99846.57;1666967;86;21213;-77
2022/10/30 11:19:29;;;;;;;20.08;11.38;;;;;;;16.49;73.38;99840.45;1665829;85;21224;-77
2022/10/30 11:22:43;;;;;;;18.55;10.85;;;;;;;16.36;73.56;99842.78;1665875;86;21227;-77
2022/10/30 11:25:49;;;;;;;20.25;12.07;;;;;;;16.47;73.22;99837.92;1667019;86;21312;-77
2022/10/30 11:29:19;;;;;;;19.85;11.35;;;;;;;16.44;72.98;99839.74;1666975;86;21256;-77
2022/10/30 11:32:27;;;;;;;25.95;11.43;;;;;;;16.52;72.66;99848.28;1667093;86;21244;-77
2022/10/30 11:35:34;;;;;;;20.60;10.75;;;;;;;16.50;72.68;99837.98;1668052;86;21169;-77
2022/10/30 11:38:39;;;;;;;20.80;9.75;;;;;;;16.71;72.02;99833.98;1667246;85;21244;-77
2022/10/30 11:41:44;;;;;;;18.82;10.85;;;;;;;16.63;72.06;99834.27;1667096;86;21236;-77
2022/10/30 11:44:57;;;;;;;19.92;11.57;;;;;;;16.41;72.43;99837.96;1667866;86;21161;-77
2022/10/30 11:48:05;;;;;;;22.40;10.08;;;;;;;16.46;72.37;99844.48;1655314;86;21728;-77
2022/10/30 11:51:13;;;;;;;22.37;11.33;;;;;;;16.44;72.34;99839.74;1666917;86;21252;-77
2022/10/30 11:54:18;;;;;;;15.43;10.35;;;;;;;16.43;72.29;99839.98;1666683;86;21232;-77
2022/10/30 11:57:10;;;;;;;15.55;11.38;;;;;;;16.58;71.84;99846.83;1667033;85;21187;-77
2022/10/30 11:59:58;;;;;;;19.35;11.48;;;;;;;16.53;71.86;99843.91;1651580;84;21232;-77
2022/10/30 12:02:59;;;;;;;18.02;10.40;;;;;;;16.43;72.07;99840.82;1669894;84;21754;-77
2022/10/30 12:05:46;;;;;;;18.10;11.27;;;;;;;16.52;71.96;99845.53;1736629;82;21255;-77
2022/10/30 12:08:40;;;;;;;19.62;11.12;;;;;;;16.53;72.11;99842.53;1736139;81;21197;-77
2022/10/30 12:11:47;;;;;;;18.50;10.45;;;;;;;16.70;71.60;99834.52;1734764;82;21819;-77
2022/10/30 12:14:53;;;;;;;16.82;10.95;;;;;;;16.94;70.56;99843.86;1754712;81;21200;-77
2022/10/30 12:18:01;;;;;;;18.25;10.43;;;;;;;17.04;69.98;99847.47;1754257;81;21212;-77
2022/10/30 12:21:08;;;;;;;17.87;10.53;;;;;;;17.08;69.73;99843.17;1753197;81;21204;-77
2022/10/30 12:24:15;;;;;;;18.17;11.20;;;;;;;17.26;68.97;99854.73;1752863;81;21338;-77
2022/10/30 12:27:21;;;;;;;17.27;9.70;;;;;;;17.21;68.68;99851.83;1752960;81;21179;-78
2022/10/30 12:30:27;;;;;;;13.20;9.05;;;;;;;17.21;68.69;99849.06;1715683;83;21300;-77
2022/10/30 12:33:45;;;;;;;20.82;11.20;;;;;;;17.14;68.71;99850.53;1728714;83;21658;-77
2022/10/30 12:36:56;;;;;;;18.02;10.10;;;;;;;17.38;67.79;99841.84;1727594;82;21196;-78
2022/10/30 12:40:10;;;;;;;;;;;;;;;17.37;67.11;99842.92;1722308;83;21767;-77
2022/10/30 12:43:29;;;;;;;20.50;11.05;;;;;;;17.27;67.02;99847.62;1681751;83;20216;-77
2022/10/30 12:46:45;;;;;;;;;;;;;;;17.14;67.41;99845.55;1683278;83;21192;-78
2022/10/30 12:49:58;;;;;;;16.40;10.53;;;;;;;17.13;68.03;99845.25;1652326;85;20267;-79
2022/10/30 12:53:16;;;;;;;21.25;11.60;;;;;;;17.21;68.00;99847.14;1668442;86;21216;-79
2022/10/30 12:56:32;;;;;;;19.20;10.95;;;;;;;17.21;68.01;99850.45;1668662;86;21313;-78
2022/10/30 12:59:51;;;;;;;13.48;8.68;;;;;;;17.18;68.51;99852.31;1682302;85;21240;-77
2022/10/30 13:03:30;;;;;;;22.67;11.20;;;;;;;17.43;67.45;99854.42;1682393;85;21752;-77
2022/10/30 13:06:38;;;;;;;15.38;9.23;;;;;;;17.45;67.15;99861.09;1682367;85;21208;-77
2022/10/30 13:10:29;;;;;;;13.30;8.70;;;;;;;17.33;67.02;99861.05;1681581;84;21212;-77
2022/10/30 13:13:56;;;;;;;17.07;9.60;;;;;;;17.46;66.55;99859.50;1697646;82;21221;-77
2022/10/30 13:17:01;;;;;;;16.73;9.45;;;;;;;17.18;67.38;99858.67;1722734;81;21180;-77
2022/10/30 13:20:08;;;;;;;15.85;10.23;;;;;;;17.23;67.31;99860.75;1749157;81;21239;-77
2022/10/30 13:23:20;;;;;;;14.58;9.73;;;;;;;17.06;67.67;99855.82;1750495;81;21195;-77
2022/10/30 13:26:47;;;;;;;14.93;9.23;;;;;;;17.10;67.54;99859.81;1758419;81;21267;-77
2022/10/30 13:30:05;;;;;;;17.57;10.20;;;;;;;16.98;67.34;99860.80;1758200;81;21243;-77
2022/10/30 13:33:17;;;;;;;12.23;9.20;;;;;;;17.17;66.31;99868.02;1740051;82;21189;-77
2022/10/30 13:36:41;;;;;;;16.73;9.25;;;;;;;17.01;66.76;99869.48;1725637;83;21775;-78
2022/10/30 13:40:25;;;;;;;14.83;10.00;;;;;;;16.95;67.03;99865.42;1692674;85;21229;-78
2022/10/30 13:43:53;;;;;;;13.72;8.95;;;;;;;17.00;66.15;99864.19;1692733;85;21565;-77
2022/10/30 13:47:38;;;;;;;17.48;9.40;;;;;;;16.98;65.01;99867.16;1722346;83;21196;-77
2022/10/30 13:51:06;;;;;;;12.23;8.18;;;;;;;16.98;64.24;99864.40;1692693;85;21204;-77
2022/10/30 13:54:28;;;;;;;13.98;8.18;;;;;;;16.99;63.09;99868.03;1692909;85;21201;-77
2022/10/30 13:57:48;;;;;;;8.18;7.25;;;;;;;16.92;62.83;99868.09;1691479;85;21255;-77
2022/10/30 14:01:20;;;;;;;14.43;8.88;;;;;;;16.91;62.55;99869.70;1692905;85;21759;-77
2022/10/30 14:04:48;;;;;;;16.67;8.10;;;;;;;16.93;61.78;99875.30;1683433;84;21850;-77
2022/10/30 14:08:21;;;;;;;11.63;9.98;;;;;;;16.89;61.06;99879.61;1692631;85;21491;-78
2022/10/30 14:11:28;;;;;;;16.70;9.85;;;;;;;16.81;61.17;99883.50;1692210;85;21228;-77
2022/10/30 14:14:38;;;;;;;14.05;9.40;;;;;;;16.61;62.01;99880.91;1687346;83;21300;-77
2022/10/30 14:17:44;;;;;;;20.50;11.25;;;;;;;16.54;62.46;99874.58;1709300;84;21212;-77
2022/10/30 14:20:55;;;;;;;18.25;11.38;;;;;;;16.55;62.47;99883.16;1675849;85;21197;-77
2022/10/30 14:24:23;;;;;;;20.05;11.18;;;;;;;16.47;62.48;99895.89;1709178;84;21802;-78
2022/10/30 14:27:34;;;;;;;14.68;10.13;;;;;;;16.49;62.37;99890.97;1676227;85;21216;-78
2022/10/30 14:30:41;;;;;;;17.12;10.28;;;;;;;16.52;62.37;99889.70;1709007;84;21185;-78
2022/10/30 14:34:03;;;;;;;20.35;9.55;;;;;;;16.54;62.28;99892.52;1675872;85;21261;-78
2022/10/30 14:37:09;;;;;;;16.90;8.20;;;;;;;16.52;61.48;99885.55;1709168;84;21188;-77
2022/10/30 14:40:44;;;;;;;32.60;8.53;;;;;;;16.44;61.27;99888.05;1677228;85;21852;-78
2022/10/30 14:43:54;;;;;;;10.93;8.05;;;;;;;16.38;61.41;99887.58;1687055;84;21221;-77